Página principal
METAR-TAF:

METAR-TAF

Aeroportos :

Aeroporto Internacional de Djibouti-Ambouli

Djibouti, Djibouti

latitude: 11-33N, longitude: 043-10E, altura: 49 m

Observação actual do tempo

O boletim foi feito há 2 horas e 14 minutos, às 01:00 UTC
Vento 4 kt de oes-sudoeste
Temperatura 24°C
Humidade 74%
Pressão 1019 hPa
Visibilidade 10 km ou mais
Poucas nuvensa uma altura de 2000 ft

METAR: HDAM 140100Z 25004KT 9999 FEW020 24/19 Q1019

Hora: 06:14 (03:14 UTC)

Previsão

O boletim foi feito há 22 horas e 14 minutos, às 05:00 UTC
Previsão válida de 12 às 06 UTC a 13 às 06 UTC
Vento 10 kt de este
Visibilidade 10 km ou mais
Nuvens dispersasa uma altura de 2300 ft
Tornando-se
de 12 às 15 UTC a 12 às 18 UTC
Vento 5 kt com direcção variável
Poucas nuvensa uma altura de 2000 ft
Tornando-se
de 13 às 00 UTC a 13 às 06 UTC
Vento kt de norte
Nuvens dispersasa uma altura de 2000 ft

TAF: HDAM 120500Z 1206/1306 08010KT 9999 SCT023 BECMG 1215/1218 VRB05KT FEW020 BECMG 1300/1306 00000KT SCT020

Observações e previsões do tempo de mais de 4000 aeroportos (mensagens METAR e TAF).

As estações disponíveis são os pontos amarelos e vermelhos sobre o mapa.

Mova o rato sobre o mapa para ver o nome da estação.

Depois clique no ponto para visualizar as observações e previsões meteorológicas.

Para alterar o mapa : clique nos botões verdes com uma cruz preta para aumentar o zoom; no botão verde com uma pitada de zoom; ou nas setas verdes para mapas adjacentes.


METAR-TAF: